Time;durP1;ratioP1;P1;durP2;ratioP2;P2;SDS_P1;SDS_P2;PMS_P1;PMS_P2;Temp;Humidity;BMP_temperature;BMP_pressure;BME280_temperature;BME280_humidity;BME280_pressure;Samples;Min_cycle;Max_cycle;Signal;HPM_P1;HPM_P2
2023/09/08 00:02:30;;;;;;;3.50;3.15;;;;;;;;;;10425622;22;20019;-62
2023/09/08 00:06:31;;;;;;;3.03;2.50;;;;;;;;;;10429235;22;19999;-62
2023/09/08 00:10:31;;;;;;;4.28;2.80;;;;;;;;;;10428450;22;20502;-62
2023/09/08 00:14:31;;;;;;;3.15;2.67;;;;;;;;;;10402160;22;19999;-62
2023/09/08 00:18:31;;;;;;;5.32;3.20;;;;;;;;;;10429127;22;20010;-62
2023/09/08 00:22:31;;;;;;;4.43;3.22;;;;;;;;;;10427172;22;20102;-62
2023/09/08 00:26:32;;;;;;;3.35;2.97;;;;;;;;;;10428330;22;20090;-63
2023/09/08 00:30:32;;;;;;;4.47;2.92;;;;;;;;;;10426253;22;20007;-62
2023/09/08 00:34:32;;;;;;;5.70;3.10;;;;;;;;;;10429054;22;20049;-63
2023/09/08 00:38:33;;;;;;;2.70;2.47;;;;;;;;;;10427807;22;20002;-62
2023/09/08 00:42:33;;;;;;;3.33;2.70;;;;;;;;;;10430515;22;20010;-62
2023/09/08 00:46:33;;;;;;;4.93;3.10;;;;;;;;;;10428903;22;20252;-62
2023/09/08 00:50:34;;;;;;;4.53;3.00;;;;;;;;;;10427612;22;20009;-62
2023/09/08 00:54:35;;;;;;;3.53;3.22;;;;;;;;;;10427745;22;20256;-62
2023/09/08 00:58:35;;;;;;;3.88;2.85;;;;;;;;;;10430098;22;20006;-62
2023/09/08 01:02:35;;;;;;;4.93;3.00;;;;;;;;;;10425541;22;20041;-63
2023/09/08 01:06:37;;;;;;;3.42;2.70;;;;;;;;;;10425614;22;20011;-62
2023/09/08 01:10:37;;;;;;;5.32;2.97;;;;;;;;;;10429981;22;20005;-62
2023/09/08 01:14:37;;;;;;;3.40;3.10;;;;;;;;;;10430370;22;20093;-62
2023/09/08 01:18:38;;;;;;;4.83;3.30;;;;;;;;;;10431372;22;20583;-65
2023/09/08 01:22:55;;;;;;;4.70;3.40;;;;;;;;;;10428157;22;20092;-63
2023/09/08 01:26:55;;;;;;;5.65;3.60;;;;;;;;;;10431763;22;20204;-61
2023/09/08 01:30:56;;;;;;;5.68;3.40;;;;;;;;;;10425974;22;20068;-62
2023/09/08 01:34:57;;;;;;;4.97;3.47;;;;;;;;;;10428458;22;20045;-62
2023/09/08 01:38:57;;;;;;;5.18;3.53;;;;;;;;;;10427157;22;20001;-62
2023/09/08 01:42:58;;;;;;;5.80;3.70;;;;;;;;;;10425462;22;20090;-62
2023/09/08 01:46:58;;;;;;;3.63;3.33;;;;;;;;;;10425018;22;20007;-62
2023/09/08 01:50:58;;;;;;;8.77;3.23;;;;;;;;;;10429980;22;20002;-63
2023/09/08 01:54:58;;;;;;;3.70;3.30;;;;;;;;;;10430174;22;20371;-62
2023/09/08 01:58:59;;;;;;;5.78;3.35;;;;;;;;;;10429757;22;20328;-64
2023/09/08 02:02:59;;;;;;;4.25;3.35;;;;;;;;;;10426619;22;20029;-66
2023/09/08 02:07:00;;;;;;;4.47;3.30;;;;;;;;;;10426016;22;20634;-62
2023/09/08 02:11:00;;;;;;;6.03;3.60;;;;;;;;;;10427745;22;20026;-62
2023/09/08 02:15:00;;;;;;;4.35;3.50;;;;;;;;;;10428034;22;20064;-62
2023/09/08 02:19:00;;;;;;;4.45;3.42;;;;;;;;;;10428747;22;20077;-62
2023/09/08 02:23:04;;;;;;;3.70;3.30;;;;;;;;;;10428000;22;20018;-61
2023/09/08 02:27:04;;;;;;;4.47;3.58;;;;;;;;;;10429091;22;20041;-63
2023/09/08 02:31:05;;;;;;;5.30;3.17;;;;;;;;;;10426967;22;20392;-62
2023/09/08 02:35:05;;;;;;;5.40;3.38;;;;;;;;;;10431118;22;20007;-63
2023/09/08 02:39:06;;;;;;;5.20;4.10;;;;;;;;;;10429466;22;20010;-63
2023/09/08 02:43:07;;;;;;;5.68;3.70;;;;;;;;;;10428318;22;20010;-62
2023/09/08 02:47:07;;;;;;;5.93;3.20;;;;;;;;;;10427533;22;20118;-62
2023/09/08 02:51:07;;;;;;;4.47;3.72;;;;;;;;;;10429117;22;20056;-61
2023/09/08 02:55:08;;;;;;;4.95;3.63;;;;;;;;;;10432198;22;19999;-62
2023/09/08 02:59:08;;;;;;;4.72;3.22;;;;;;;;;;10433159;22;19999;-62
2023/09/08 03:03:08;;;;;;;5.97;3.67;;;;;;;;;;10429964;22;20176;-62
2023/09/08 03:07:08;;;;;;;5.03;3.23;;;;;;;;;;10432780;22;20041;-62
2023/09/08 03:11:09;;;;;;;4.27;3.87;;;;;;;;;;10432026;22;20098;-61
2023/09/08 03:15:10;;;;;;;6.47;4.40;;;;;;;;;;10432689;22;20097;-62
2023/09/08 03:19:10;;;;;;;5.68;3.90;;;;;;;;;;10433627;22;20968;-62
2023/09/08 03:23:10;;;;;;;5.35;4.18;;;;;;;;;;10430961;22;20853;-62
2023/09/08 03:27:10;;;;;;;4.23;3.77;;;;;;;;;;10430598;22;20014;-62
2023/09/08 03:31:10;;;;;;;5.35;3.88;;;;;;;;;;10429236;22;20010;-62
2023/09/08 03:35:10;;;;;;;7.28;4.20;;;;;;;;;;10433172;22;20101;-62
2023/09/08 03:39:11;;;;;;;5.25;3.58;;;;;;;;;;10431621;22;20045;-61
2023/09/08 03:43:11;;;;;;;9.57;4.00;;;;;;;;;;10428910;22;20007;-62
2023/09/08 03:47:11;;;;;;;4.10;3.67;;;;;;;;;;10402721;22;20010;-62
2023/09/08 03:51:11;;;;;;;4.30;3.70;;;;;;;;;;10430381;22;20000;-61
2023/09/08 03:55:12;;;;;;;6.10;3.60;;;;;;;;;;10431111;22;20021;-62
2023/09/08 03:59:12;;;;;;;4.88;3.95;;;;;;;;;;10434427;22;20010;-62
2023/09/08 04:03:12;;;;;;;4.30;3.90;;;;;;;;;;10429200;22;20057;-62
2023/09/08 04:07:12;;;;;;;3.90;3.50;;;;;;;;;;10428432;22;20003;-62
2023/09/08 04:11:13;;;;;;;5.45;3.50;;;;;;;;;;10430456;22;20564;-62
2023/09/08 04:15:13;;;;;;;3.95;3.55;;;;;;;;;;10401306;22;20093;-62
2023/09/08 04:19:13;;;;;;;3.80;3.40;;;;;;;;;;10429959;22;20097;-61
2023/09/08 04:23:13;;;;;;;4.10;3.58;;;;;;;;;;10430998;22;20003;-61
2023/09/08 04:27:13;;;;;;;5.70;3.65;;;;;;;;;;10428313;22;20014;-62
2023/09/08 04:31:14;;;;;;;7.13;3.53;;;;;;;;;;10429057;22;20102;-62
2023/09/08 04:35:14;;;;;;;4.18;3.78;;;;;;;;;;10429243;22;20007;-62
2023/09/08 04:39:15;;;;;;;5.35;3.90;;;;;;;;;;10427063;22;20083;-62
2023/09/08 04:43:15;;;;;;;5.63;4.10;;;;;;;;;;10431982;22;20034;-62
2023/09/08 04:47:16;;;;;;;6.50;3.80;;;;;;;;;;10428978;22;20019;-61
2023/09/08 04:51:16;;;;;;;4.43;3.40;;;;;;;;;;10428752;22;20033;-63
2023/09/08 04:55:17;;;;;;;5.38;3.70;;;;;;;;;;10432686;22;19999;-62
2023/09/08 04:59:17;;;;;;;4.60;3.30;;;;;;;;;;10402648;22;20171;-62
2023/09/08 05:03:17;;;;;;;5.20;4.70;;;;;;;;;;10430694;22;20026;-62
2023/09/08 05:07:18;;;;;;;5.53;4.93;;;;;;;;;;10430293;22;19999;-62
2023/09/08 05:11:19;;;;;;;6.03;4.82;;;;;;;;;;10427507;22;20098;-67
2023/09/08 05:15:21;;;;;;;6.07;4.70;;;;;;;;;;10426923;22;20443;-63
2023/09/08 05:19:22;;;;;;;6.72;5.20;;;;;;;;;;10401583;22;20459;-62
2023/09/08 05:23:22;;;;;;;5.47;4.68;;;;;;;;;;10430546;22;20701;-61
2023/09/08 05:27:22;;;;;;;5.05;4.55;;;;;;;;;;10429212;22;20017;-62
2023/09/08 05:31:22;;;;;;;4.82;4.32;;;;;;;;;;10426930;22;20015;-60
2023/09/08 05:35:23;;;;;;;5.93;4.17;;;;;;;;;;10424017;22;19991;-61
2023/09/08 05:39:23;;;;;;;4.55;4.15;;;;;;;;;;10424148;22;19999;-61
2023/09/08 05:43:24;;;;;;;4.90;4.30;;;;;;;;;;10427074;22;19999;-62
2023/09/08 05:47:25;;;;;;;6.90;4.43;;;;;;;;;;10425437;22;21268;-62
2023/09/08 05:51:25;;;;;;;4.72;4.00;;;;;;;;;;10422414;22;20120;-62
2023/09/08 05:55:25;;;;;;;5.68;4.57;;;;;;;;;;10425807;22;20002;-62
2023/09/08 05:59:26;;;;;;;6.47;3.97;;;;;;;;;;10426033;22;20355;-62
2023/09/08 06:03:26;;;;;;;6.57;3.88;;;;;;;;;;10428626;22;20022;-61
2023/09/08 06:07:26;;;;;;;4.10;3.70;;;;;;;;;;10427274;22;20108;-61
2023/09/08 06:11:26;;;;;;;6.25;4.32;;;;;;;;;;10424569;22;20759;-60
2023/09/08 06:15:27;;;;;;;6.97;4.45;;;;;;;;;;10427408;22;20007;-62
2023/09/08 06:19:27;;;;;;;6.70;3.92;;;;;;;;;;10423448;22;20006;-62
2023/09/08 06:23:27;;;;;;;8.13;4.07;;;;;;;;;;10424394;22;20023;-62
2023/09/08 06:27:27;;;;;;;4.38;3.72;;;;;;;;;;10426797;22;19999;-62
2023/09/08 06:31:27;;;;;;;7.32;3.95;;;;;;;;;;10428016;22;20018;-62
2023/09/08 06:35:28;;;;;;;5.47;3.47;;;;;;;;;;10429671;22;20804;-62
2023/09/08 06:39:28;;;;;;;5.38;3.80;;;;;;;;;;10431888;22;20427;-62
2023/09/08 06:43:28;;;;;;;6.30;3.20;;;;;;;;;;10434682;22;20653;-66
2023/09/08 06:47:29;;;;;;;7.03;3.47;;;;;;;;;;10429131;22;20007;-62
2023/09/08 06:51:29;;;;;;;3.37;3.07;;;;;;;;;;10429538;22;20092;-63
2023/09/08 06:55:29;;;;;;;5.05;3.30;;;;;;;;;;10430114;22;20003;-64
2023/09/08 06:59:29;;;;;;;4.23;3.20;;;;;;;;;;10437315;22;19998;-62
2023/09/08 07:03:36;;;;;;;4.32;3.28;;;;;;;;;;10430870;22;20053;-62
2023/09/08 07:07:37;;;;;;;4.72;3.15;;;;;;;;;;10404956;22;20451;-62
2023/09/08 07:11:37;;;;;;;6.10;3.22;;;;;;;;;;10431506;22;20101;-62
2023/09/08 07:15:38;;;;;;;3.58;3.10;;;;;;;;;;10430690;22;20015;-62
2023/09/08 07:19:38;;;;;;;6.83;3.37;;;;;;;;;;10432582;22;20443;-62
2023/09/08 07:23:38;;;;;;;6.33;3.17;;;;;;;;;;10430316;22;20006;-62
2023/09/08 07:27:38;;;;;;;5.72;3.40;;;;;;;;;;10432504;22;20060;-62
2023/09/08 07:31:39;;;;;;;5.43;3.05;;;;;;;;;;10431593;22;20582;-62
2023/09/08 07:35:39;;;;;;;3.42;3.13;;;;;;;;;;10427582;22;20081;-62
2023/09/08 07:39:40;;;;;;;4.63;2.95;;;;;;;;;;10428801;22;20010;-62
2023/09/08 07:43:40;;;;;;;3.23;2.93;;;;;;;;;;10398931;22;20494;-62
2023/09/08 07:47:40;;;;;;;4.65;3.10;;;;;;;;;;10427506;22;20513;-62
2023/09/08 07:51:41;;;;;;;4.00;3.05;;;;;;;;;;10431901;22;19994;-62
2023/09/08 07:55:41;;;;;;;4.63;3.10;;;;;;;;;;10429996;22;19994;-62
2023/09/08 07:59:41;;;;;;;4.45;2.97;;;;;;;;;;10428684;22;20014;-62
2023/09/08 08:03:41;;;;;;;5.50;3.40;;;;;;;;;;10427936;22;20022;-62
2023/09/08 08:07:42;;;;;;;5.10;3.30;;;;;;;;;;10432037;22;20003;-61
2023/09/08 08:11:42;;;;;;;7.07;3.33;;;;;;;;;;10426295;22;20028;-61
2023/09/08 08:15:47;;;;;;;6.57;3.30;;;;;;;;;;10424112;22;20006;-62
2023/09/08 08:19:47;;;;;;;4.90;3.00;;;;;;;;;;10426813;22;20003;-62
2023/09/08 08:23:47;;;;;;;5.28;3.60;;;;;;;;;;10427636;22;20306;-62
2023/09/08 08:27:47;;;;;;;5.05;3.47;;;;;;;;;;10429337;22;20026;-62
2023/09/08 08:31:47;;;;;;;4.63;3.03;;;;;;;;;;10427074;22;20774;-62
2023/09/08 08:35:48;;;;;;;4.97;3.20;;;;;;;;;;10422845;22;19995;-62
2023/09/08 08:39:48;;;;;;;3.67;3.30;;;;;;;;;;10424180;22;20763;-62
2023/09/08 08:43:50;;;;;;;3.43;2.80;;;;;;;;;;10425379;22;20048;-62
2023/09/08 08:47:51;;;;;;;4.78;2.95;;;;;;;;;;10426030;22;20356;-62
2023/09/08 08:51:51;;;;;;;3.47;3.17;;;;;;;;;;10426097;22;20211;-61
2023/09/08 08:55:54;;;;;;;4.13;3.10;;;;;;;;;;10424071;22;20029;-62
2023/09/08 08:59:55;;;;;;;4.18;3.17;;;;;;;;;;10426649;22;20679;-61
2023/09/08 09:03:55;;;;;;;6.47;3.23;;;;;;;;;;10425117;22;20375;-62
2023/09/08 09:07:57;;;;;;;9.53;3.13;;;;;;;;;;10424207;22;20814;-61
2023/09/08 09:11:58;;;;;;;4.88;3.13;;;;;;;;;;10424340;22;20486;-62
2023/09/08 09:15:59;;;;;;;6.03;3.37;;;;;;;;;;10426362;22;20013;-62
2023/09/08 09:20:14;;;;;;;4.20;3.20;;;;;;;;;;10428110;22;20007;-61
2023/09/08 09:24:15;;;;;;;5.75;3.58;;;;;;;;;;10420130;22;20010;-61
2023/09/08 09:28:15;;;;;;;4.43;3.03;;;;;;;;;;10422846;22;20086;-61
2023/09/08 09:32:16;;;;;;;3.83;3.20;;;;;;;;;;10422847;22;20018;-61
2023/09/08 09:36:22;;;;;;;4.40;3.20;;;;;;;;;;10426061;22;20316;-61
2023/09/08 09:40:22;;;;;;;6.90;3.22;;;;;;;;;;10424814;22;19995;-62
2023/09/08 09:44:23;;;;;;;4.77;3.27;;;;;;;;;;10423553;22;20003;-61
2023/09/08 09:48:23;;;;;;;3.78;2.95;;;;;;;;;;10418380;22;20018;-61
2023/09/08 09:52:25;;;;;;;5.57;3.30;;;;;;;;;;10421561;22;20112;-61
2023/09/08 09:56:26;;;;;;;;;;;;;;;;;;10396214;22;20003;-60
2023/09/08 10:00:26;;;;;;;6.65;3.70;;;;;;;;;;10422753;22;19913;-60
2023/09/08 10:04:27;;;;;;;3.45;3.03;;;;;;;;;;10425899;22;20102;-62
2023/09/08 10:08:28;;;;;;;6.15;3.33;;;;;;;;;;10425792;22;20430;-62
2023/09/08 10:12:31;;;;;;;5.28;3.20;;;;;;;;;;10425003;22;20005;-63
2023/09/08 10:16:34;;;;;;;4.82;3.38;;;;;;;;;;10398395;22;20307;-63
2023/09/08 10:20:36;;;;;;;4.43;3.38;;;;;;;;;;10398113;22;20002;-63
2023/09/08 10:24:37;;;;;;;;;;;;;;;;;;10426792;22;20089;-62
2023/09/08 10:28:38;;;;;;;3.47;3.05;;;;;;;;;;10426432;22;19996;-62
2023/09/08 10:32:38;;;;;;;3.47;3.13;;;;;;;;;;10424171;22;20120;-62
2023/09/08 10:36:39;;;;;;;4.22;3.00;;;;;;;;;;10429621;22;20018;-61
2023/09/08 10:40:39;;;;;;;5.05;3.10;;;;;;;;;;10425921;22;20044;-61
2023/09/08 10:44:39;;;;;;;7.80;3.42;;;;;;;;;;10425367;22;20063;-61
2023/09/08 10:48:43;;;;;;;6.88;3.22;;;;;;;;;;10428205;22;20850;-61
2023/09/08 10:52:44;;;;;;;5.70;3.30;;;;;;;;;;10427671;22;20096;-61
2023/09/08 10:56:55;;;;;;;4.27;3.17;;;;;;;;;;10431339;22;20002;-61
2023/09/08 11:01:00;;;;;;;5.35;3.17;;;;;;;;;;10430362;22;20022;-61
2023/09/08 11:05:00;;;;;;;9.30;3.17;;;;;;;;;;10428940;22;20007;-61
2023/09/08 11:09:07;;;;;;;3.38;3.08;;;;;;;;;;10429545;22;20006;-61
2023/09/08 11:13:07;;;;;;;5.07;3.15;;;;;;;;;;10429897;22;19994;-61
2023/09/08 11:17:08;;;;;;;5.67;2.90;;;;;;;;;;10424943;22;20026;-62
2023/09/08 11:21:09;;;;;;;4.17;3.00;;;;;;;;;;10423679;22;20003;-61
2023/09/08 11:25:12;;;;;;;6.30;3.42;;;;;;;;;;10428937;22;20023;-61
2023/09/08 11:29:12;;;;;;;6.72;2.80;;;;;;;;;;10432139;22;20011;-67
2023/09/08 11:33:16;;;;;;;9.07;3.35;;;;;;;;;;10431982;22;20010;-62
2023/09/08 11:37:17;;;;;;;5.32;3.30;;;;;;;;;;10431868;22;20788;-62
2023/09/08 11:41:22;;;;;;;5.30;2.78;;;;;;;;;;10428794;22;19998;-62
2023/09/08 11:45:23;;;;;;;5.55;3.40;;;;;;;;;;10430001;22;20037;-62
2023/09/08 11:49:23;;;;;;;7.10;2.90;;;;;;;;;;10430032;22;20013;-62
2023/09/08 11:53:24;;;;;;;6.30;2.80;;;;;;;;;;10428820;22;20238;-62
2023/09/08 11:57:24;;;;;;;3.50;3.20;;;;;;;;;;10427837;22;20003;-62
2023/09/08 12:01:24;;;;;;;3.53;2.63;;;;;;;;;;10431943;22;20371;-62
2023/09/08 12:05:26;;;;;;;6.57;3.28;;;;;;;;;;10433598;22;20244;-62
2023/09/08 12:09:26;;;;;;;6.97;3.30;;;;;;;;;;10430958;22;20105;-62
2023/09/08 12:13:26;;;;;;;6.53;3.30;;;;;;;;;;10423511;22;20064;-62
2023/09/08 12:17:28;;;;;;;6.47;3.10;;;;;;;;;;10422666;22;20022;-61
2023/09/08 12:21:31;;;;;;;5.10;3.00;;;;;;;;;;10395628;22;20626;-62
2023/09/08 12:25:32;;;;;;;5.50;3.20;;;;;;;;;;10420880;22;20097;-62
2023/09/08 12:29:32;;;;;;;5.00;3.08;;;;;;;;;;10422411;22;20049;-62
2023/09/08 12:33:32;;;;;;;5.28;3.30;;;;;;;;;;10423652;22;20136;-62
2023/09/08 12:37:33;;;;;;;6.63;2.83;;;;;;;;;;10422032;22;20030;-62
2023/09/08 12:41:33;;;;;;;5.25;3.25;;;;;;;;;;10422620;22;19998;-62
2023/09/08 12:45:34;;;;;;;4.78;2.95;;;;;;;;;;10422841;22;20019;-62
2023/09/08 12:49:34;;;;;;;5.63;2.97;;;;;;;;;;10421232;22;19999;-62
2023/09/08 12:53:37;;;;;;;4.47;3.30;;;;;;;;;;10425920;22;20757;-62
2023/09/08 12:57:37;;;;;;;5.53;3.10;;;;;;;;;;10429310;22;20022;-62
2023/09/08 13:01:37;;;;;;;3.80;3.17;;;;;;;;;;10423313;22;20077;-61
2023/09/08 13:05:38;;;;;;;6.73;3.23;;;;;;;;;;10427523;22;20027;-61
2023/09/08 13:09:38;;;;;;;3.25;2.92;;;;;;;;;;10426628;22;20121;-62
2023/09/08 13:13:39;;;;;;;6.83;3.20;;;;;;;;;;10423766;22;20491;-61
2023/09/08 13:17:39;;;;;;;5.55;3.10;;;;;;;;;;10396488;22;20240;-61
2023/09/08 13:21:40;;;;;;;2.67;2.47;;;;;;;;;;10430972;22;20038;-62
2023/09/08 13:25:41;;;;;;;3.33;3.03;;;;;;;;;;10427623;22;20664;-63
2023/09/08 13:29:41;;;;;;;6.77;3.23;;;;;;;;;;10427367;22;20102;-62
2023/09/08 13:33:42;;;;;;;3.78;3.10;;;;;;;;;;10400939;22;20376;-62
2023/09/08 13:37:42;;;;;;;5.57;3.20;;;;;;;;;;10429615;22;20002;-61
2023/09/08 13:41:49;;;;;;;3.50;3.20;;;;;;;;;;10425505;22;20018;-62
2023/09/08 13:45:50;;;;;;;3.85;2.90;;;;;;;;;;10422750;22;20104;-62
2023/09/08 13:49:50;;;;;;;4.35;3.17;;;;;;;;;;10423126;22;20011;-61
2023/09/08 13:53:50;;;;;;;3.38;2.90;;;;;;;;;;10427940;22;19999;-61
2023/09/08 13:57:50;;;;;;;4.55;3.30;;;;;;;;;;10421805;22;20007;-61
2023/09/08 14:01:51;;;;;;;4.13;2.90;;;;;;;;;;10425121;22;20413;-61
2023/09/08 14:05:51;;;;;;;5.45;2.90;;;;;;;;;;10425131;22;20438;-61
2023/09/08 14:09:51;;;;;;;6.55;2.75;;;;;;;;;;10422729;22;20362;-62
2023/09/08 14:13:51;;;;;;;5.15;3.50;;;;;;;;;;10425640;22;20351;-62
2023/09/08 14:17:52;;;;;;;3.25;2.97;;;;;;;;;;10421570;22;20294;-61
2023/09/08 14:21:53;;;;;;;3.65;3.03;;;;;;;;;;10425056;22;20647;-63
2023/09/08 14:25:53;;;;;;;4.60;2.97;;;;;;;;;;10426265;22;20643;-62
2023/09/08 14:29:54;;;;;;;4.00;3.38;;;;;;;;;;10423171;22;20194;-61
2023/09/08 14:33:55;;;;;;;4.95;3.20;;;;;;;;;;10421646;22;20449;-61
2023/09/08 14:37:55;;;;;;;3.92;3.05;;;;;;;;;;10424766;22;20010;-61
2023/09/08 14:41:55;;;;;;;4.37;3.17;;;;;;;;;;10421772;22;19999;-61
2023/09/08 14:45:59;;;;;;;4.53;3.20;;;;;;;;;;10427018;22;20149;-62
2023/09/08 14:49:59;;;;;;;4.45;3.40;;;;;;;;;;10426018;22;20049;-61
2023/09/08 14:53:59;;;;;;;3.30;3.00;;;;;;;;;;10422922;22;19998;-62
2023/09/08 14:58:00;;;;;;;4.55;2.97;;;;;;;;;;10427101;22;20017;-62
2023/09/08 15:02:00;;;;;;;3.88;3.58;;;;;;;;;;10423019;22;20077;-61
2023/09/08 15:06:00;;;;;;;6.03;2.90;;;;;;;;;;10423648;22;20010;-61
2023/09/08 15:10:00;;;;;;;8.00;3.70;;;;;;;;;;10424527;22;20003;-61
2023/09/08 15:14:01;;;;;;;4.07;3.20;;;;;;;;;;10429385;22;20221;-61
2023/09/08 15:18:01;;;;;;;4.90;3.13;;;;;;;;;;10425048;22;20048;-61
2023/09/08 15:22:01;;;;;;;4.60;3.55;;;;;;;;;;10424478;22;19994;-61
2023/09/08 15:26:01;;;;;;;4.70;3.37;;;;;;;;;;10429341;22;20007;-62
2023/09/08 15:30:02;;;;;;;7.93;3.93;;;;;;;;;;10432216;22;20420;-61
2023/09/08 15:34:02;;;;;;;5.65;3.47;;;;;;;;;;10429062;22;20240;-61
2023/09/08 15:38:02;;;;;;;7.25;3.83;;;;;;;;;;10429201;22;20371;-61
2023/09/08 15:42:02;;;;;;;5.60;3.60;;;;;;;;;;10430531;22;20009;-61
2023/09/08 15:46:03;;;;;;;9.40;4.30;;;;;;;;;;10426480;22;20832;-61
2023/09/08 15:50:07;;;;;;;7.47;3.80;;;;;;;;;;10418863;22;20041;-61
2023/09/08 15:54:07;;;;;;;6.53;3.72;;;;;;;;;;10424417;22;20102;-61
2023/09/08 15:58:07;;;;;;;7.32;4.10;;;;;;;;;;10425809;22;20007;-61
2023/09/08 16:02:08;;;;;;;7.50;4.10;;;;;;;;;;10397244;22;20025;-61
2023/09/08 16:06:08;;;;;;;7.80;4.20;;;;;;;;;;10426796;22;20014;-61
2023/09/08 16:10:09;;;;;;;3.67;3.30;;;;;;;;;;10424962;22;20011;-61
2023/09/08 16:14:09;;;;;;;13.33;6.10;;;;;;;;;;10427737;22;20072;-61
2023/09/08 16:18:10;;;;;;;7.82;4.65;;;;;;;;;;10427281;22;20235;-62
2023/09/08 16:22:12;;;;;;;7.53;4.63;;;;;;;;;;10431715;22;20033;-62
2023/09/08 16:26:12;;;;;;;6.22;4.35;;;;;;;;;;10426105;22;20087;-61
2023/09/08 16:30:12;;;;;;;4.70;4.13;;;;;;;;;;10425805;22;20007;-61
2023/09/08 16:34:12;;;;;;;4.70;4.30;;;;;;;;;;10428534;22;20049;-61
2023/09/08 16:38:14;;;;;;;5.75;3.90;;;;;;;;;;10431991;22;19998;-61
2023/09/08 16:42:14;;;;;;;5.35;3.67;;;;;;;;;;10432552;22;20003;-61
2023/09/08 16:46:14;;;;;;;4.83;4.10;;;;;;;;;;10430278;22;20015;-61
2023/09/08 16:50:14;;;;;;;5.97;3.95;;;;;;;;;;10428489;22;20061;-62
2023/09/08 16:54:15;;;;;;;5.13;3.80;;;;;;;;;;10430023;22;20008;-62
2023/09/08 16:58:15;;;;;;;8.17;4.50;;;;;;;;;;10426198;22;20014;-61
2023/09/08 17:02:15;;;;;;;6.05;3.97;;;;;;;;;;10423527;22;20031;-61
2023/09/08 17:06:15;;;;;;;3.20;2.92;;;;;;;;;;10423585;22;20094;-61
2023/09/08 17:10:16;;;;;;;3.75;3.45;;;;;;;;;;10427088;22;20014;-61
2023/09/08 17:14:16;;;;;;;6.77;3.60;;;;;;;;;;10427899;22;19998;-61
2023/09/08 17:18:17;;;;;;;5.30;3.60;;;;;;;;;;10426335;22;20015;-61
2023/09/08 17:22:17;;;;;;;5.22;3.80;;;;;;;;;;10427054;22;20067;-61
2023/09/08 17:26:18;;;;;;;7.43;3.43;;;;;;;;;;10425086;22;20546;-61
2023/09/08 17:30:18;;;;;;;4.03;3.22;;;;;;;;;;10425450;22;20038;-61
2023/09/08 17:34:21;;;;;;;4.40;3.60;;;;;;;;;;10428456;22;20002;-61
2023/09/08 17:38:22;;;;;;;6.32;3.08;;;;;;;;;;10429473;22;20060;-61
2023/09/08 17:42:22;;;;;;;4.80;3.23;;;;;;;;;;10427730;22;20011;-60
2023/09/08 17:46:22;;;;;;;4.25;3.47;;;;;;;;;;10429374;22;20015;-61
2023/09/08 17:50:23;;;;;;;3.55;3.08;;;;;;;;;;10419517;22;20022;-74
2023/09/08 17:54:23;;;;;;;3.60;3.30;;;;;;;;;;10380902;22;20003;-74
2023/09/08 17:58:23;;;;;;;3.58;3.03;;;;;;;;;;10385922;22;20745;-73
2023/09/08 18:02:24;;;;;;;4.20;3.80;;;;;;;;;;10382387;22;20026;-74
2023/09/08 18:06:24;;;;;;;5.80;3.55;;;;;;;;;;10382024;22;19999;-73
2023/09/08 18:10:24;;;;;;;7.25;3.50;;;;;;;;;;10383027;22;20011;-73
2023/09/08 18:14:25;;;;;;;3.70;3.40;;;;;;;;;;10383685;22;20010;-73
2023/09/08 18:18:25;;;;;;;5.80;3.20;;;;;;;;;;10377718;22;20011;-73
2023/09/08 18:22:26;;;;;;;5.75;3.60;;;;;;;;;;10380195;22;20257;-74
2023/09/08 18:26:26;;;;;;;4.28;3.58;;;;;;;;;;10379573;22;20011;-72
2023/09/08 18:30:27;;;;;;;5.25;3.28;;;;;;;;;;10372888;22;20459;-72
2023/09/08 18:34:27;;;;;;;6.13;3.53;;;;;;;;;;10376661;22;20007;-73
2023/09/08 18:38:27;;;;;;;5.65;3.90;;;;;;;;;;10382735;22;20026;-73
2023/09/08 18:42:28;;;;;;;6.20;3.40;;;;;;;;;;10382236;22;19999;-72
2023/09/08 18:46:28;;;;;;;4.03;3.60;;;;;;;;;;10372013;22;20111;-73
2023/09/08 18:50:28;;;;;;;7.50;3.70;;;;;;;;;;10380453;22;20073;-75
2023/09/08 18:54:31;;;;;;;4.25;3.58;;;;;;;;;;10391638;22;20087;-75
2023/09/08 18:58:37;;;;;;;5.72;3.53;;;;;;;;;;10366732;22;20761;-75
2023/09/08 19:02:37;;;;;;;4.90;3.60;;;;;;;;;;10390453;22;20044;-74
2023/09/08 19:06:37;;;;;;;3.60;3.30;;;;;;;;;;10397122;22;20014;-73
2023/09/08 19:10:38;;;;;;;3.75;3.45;;;;;;;;;;10392961;22;20034;-75
2023/09/08 19:14:38;;;;;;;4.10;3.67;;;;;;;;;;10388220;22;20038;-73
2023/09/08 19:18:39;;;;;;;4.25;3.78;;;;;;;;;;10386189;22;20492;-73
2023/09/08 19:22:40;;;;;;;3.95;3.05;;;;;;;;;;10388207;22;20014;-74
2023/09/08 19:26:40;;;;;;;5.32;3.40;;;;;;;;;;10386059;22;20022;-73
2023/09/08 19:30:47;;;;;;;4.63;3.60;;;;;;;;;;10370644;22;20023;-74
2023/09/08 19:34:50;;;;;;;4.90;3.50;;;;;;;;;;10384997;22;19999;-74
2023/09/08 19:38:53;;;;;;;3.70;3.35;;;;;;;;;;10387928;22;20548;-76
2023/09/08 19:42:53;;;;;;;4.25;3.85;;;;;;;;;;10386384;22;20009;-73
2023/09/08 19:46:54;;;;;;;5.00;3.50;;;;;;;;;;10391049;22;20016;-74
2023/09/08 19:50:54;;;;;;;3.78;3.45;;;;;;;;;;10390455;22;20046;-74
2023/09/08 19:54:57;;;;;;;3.80;3.35;;;;;;;;;;10388861;22;20042;-74
2023/09/08 19:58:57;;;;;;;4.05;3.50;;;;;;;;;;10370144;22;20026;-75
2023/09/08 20:02:57;;;;;;;3.45;3.15;;;;;;;;;;10390814;22;20011;-75
2023/09/08 20:06:57;;;;;;;3.72;3.35;;;;;;;;;;10394356;22;20010;-74
2023/09/08 20:10:59;;;;;;;3.50;3.20;;;;;;;;;;10397681;22;19995;-74
2023/09/08 20:14:59;;;;;;;8.32;3.65;;;;;;;;;;10396796;22;20030;-74
2023/09/08 20:18:59;;;;;;;6.75;3.17;;;;;;;;;;10395699;22;20061;-74
2023/09/08 20:22:59;;;;;;;5.10;3.67;;;;;;;;;;10401107;22;19999;-75
2023/09/08 20:27:01;;;;;;;5.67;3.60;;;;;;;;;;10373240;22;20015;-75
2023/09/08 20:31:01;;;;;;;4.55;3.67;;;;;;;;;;10396774;22;20019;-74
2023/09/08 20:35:02;;;;;;;6.25;3.65;;;;;;;;;;10398105;22;20102;-75
2023/09/08 20:39:02;;;;;;;6.45;3.40;;;;;;;;;;10399890;22;20003;-75
2023/09/08 20:43:04;;;;;;;4.70;3.40;;;;;;;;;;10396985;22;20010;-74
2023/09/08 20:47:06;;;;;;;6.72;3.60;;;;;;;;;;10398702;22;20238;-75
2023/09/08 20:51:09;;;;;;;5.32;3.20;;;;;;;;;;10403380;22;20180;-75
2023/09/08 20:55:11;;;;;;;4.07;3.65;;;;;;;;;;10402474;22;20880;-75
2023/09/08 20:59:12;;;;;;;4.20;3.30;;;;;;;;;;10404748;22;20663;-74
2023/09/08 21:03:13;;;;;;;6.55;3.53;;;;;;;;;;10403936;22;20314;-75
2023/09/08 21:07:15;;;;;;;4.55;3.42;;;;;;;;;;10407985;22;20034;-75
2023/09/08 21:11:25;;;;;;;4.25;3.40;;;;;;;;;;10402643;22;20488;-75
2023/09/08 21:15:27;;;;;;;4.65;3.25;;;;;;;;;;10407320;22;20010;-74
2023/09/08 21:19:32;;;;;;;3.72;3.17;;;;;;;;;;10404091;22;20098;-75
2023/09/08 21:23:33;;;;;;;4.57;3.30;;;;;;;;;;10400043;22;20114;-75
2023/09/08 21:27:36;;;;;;;3.25;2.95;;;;;;;;;;10404572;22;20853;-74
2023/09/08 21:31:44;;;;;;;4.72;3.30;;;;;;;;;;10399869;22;20045;-75
2023/09/08 21:35:46;;;;;;;3.60;3.17;;;;;;;;;;10403783;22;20006;-75
2023/09/08 21:39:53;;;;;;;3.72;3.17;;;;;;;;;;10401940;22;20011;-75
2023/09/08 21:43:58;;;;;;;5.05;3.00;;;;;;;;;;10400215;22;20038;-74
2023/09/08 21:47:59;;;;;;;3.67;3.38;;;;;;;;;;10392238;22;20019;-73
2023/09/08 21:52:02;;;;;;;3.58;3.20;;;;;;;;;;10399819;22;20083;-74
2023/09/08 21:56:06;;;;;;;3.67;3.20;;;;;;;;;;10376256;22;20007;-74
2023/09/08 22:00:11;;;;;;;3.63;3.00;;;;;;;;;;10405317;22;20007;-74
2023/09/08 22:04:15;;;;;;;4.72;2.85;;;;;;;;;;10405228;22;20447;-74
2023/09/08 22:08:17;;;;;;;3.40;3.05;;;;;;;;;;10407038;22;20030;-74
2023/09/08 22:12:18;;;;;;;4.32;2.78;;;;;;;;;;10403711;22;20003;-74
2023/09/08 22:16:20;;;;;;;3.47;3.10;;;;;;;;;;10402620;22;20798;-75
2023/09/08 22:20:23;;;;;;;3.40;3.10;;;;;;;;;;10404052;22;20313;-74
2023/09/08 22:24:24;;;;;;;4.82;3.38;;;;;;;;;;10402398;22;20735;-74
2023/09/08 22:28:25;;;;;;;3.78;3.15;;;;;;;;;;10403200;22;20066;-75
2023/09/08 22:32:28;;;;;;;4.20;2.88;;;;;;;;;;10396712;22;20118;-74
2023/09/08 22:36:37;;;;;;;3.25;2.95;;;;;;;;;;10400839;22;20010;-75
2023/09/08 22:40:41;;;;;;;5.20;3.10;;;;;;;;;;10401082;22;19999;-74
2023/09/08 22:44:42;;;;;;;3.97;3.10;;;;;;;;;;10404519;22;20006;-74
2023/09/08 22:48:50;;;;;;;7.10;3.20;;;;;;;;;;10401950;22;20011;-74
2023/09/08 22:52:52;;;;;;;3.53;2.97;;;;;;;;;;10397778;22;20016;-74
2023/09/08 22:56:54;;;;;;;4.22;2.90;;;;;;;;;;10394771;22;20440;-74
2023/09/08 23:00:54;;;;;;;4.80;2.92;;;;;;;;;;10394103;22;20022;-73
2023/09/08 23:04:59;;;;;;;4.35;2.90;;;;;;;;;;10400477;22;19999;-73
2023/09/08 23:09:00;;;;;;;4.63;2.67;;;;;;;;;;10399440;22;20086;-75
2023/09/08 23:13:01;;;;;;;3.80;3.03;;;;;;;;;;10396881;22;20003;-74
2023/09/08 23:17:01;;;;;;;5.63;3.13;;;;;;;;;;10406296;22;20509;-75
2023/09/08 23:21:05;;;;;;;4.20;3.40;;;;;;;;;;10411819;22;20035;-74
2023/09/08 23:25:13;;;;;;;3.53;3.15;;;;;;;;;;10410840;22;20456;-74
2023/09/08 23:29:18;;;;;;;3.67;3.38;;;;;;;;;;10409771;22;20018;-75
2023/09/08 23:33:19;;;;;;;3.47;3.10;;;;;;;;;;10398796;22;20503;-74
2023/09/08 23:37:19;;;;;;;5.07;3.15;;;;;;;;;;10401831;22;20458;-74
2023/09/08 23:41:20;;;;;;;5.53;3.23;;;;;;;;;;10400918;22;20006;-75
2023/09/08 23:45:20;;;;;;;3.97;3.10;;;;;;;;;;10400319;22;20340;-74